Terminal Aerodrome Forecast
Issued by NWS

Current Version | Previous Version | Text Only | Print | Product List | Glossary On
Versions: 1 2 3 4 5 6 7 8 9 10 11 12 13
000
FTUS44 KLZK 262321
TAFLLQ
TAF
KLLQ 262321Z 2700/2724 10006KT P6SM VCTS SCT050CB SCT250
     FM270500 VRB03KT P6SM VCFG FEW050 BKN120
      TEMPO 2708/2712 5SM BR
     FM271200 VRB04KT P6SM VCTS SCT040CB BKN100 PROB30 2716/2722 5SM
      -TSRA=

USA.gov is the U.S. government's official web portal to all federal, state and local government web resources and services.